createdAt,value
2022-12-03T00:03:16.387Z,101047.34
2022-12-03T00:13:19.114Z,101063.38
2022-12-03T00:23:20.951Z,101066.91
2022-12-03T00:33:22.874Z,101075.34
2022-12-03T00:43:24.803Z,101071.91
2022-12-03T00:53:26.569Z,101081.44
2022-12-03T01:03:32.760Z,101080.03
2022-12-03T01:13:35.424Z,101068.56
2022-12-03T01:23:37.098Z,101061.25
2022-12-03T01:33:44.508Z,101075.19
2022-12-03T01:43:49.754Z,101084.28
2022-12-03T01:53:51.668Z,101077.31
2022-12-03T02:03:53.437Z,101081.25
2022-12-03T02:13:59.519Z,101080.41
2022-12-03T02:24:10.094Z,101069.09
2022-12-03T02:34:31.835Z,101076.91
2022-12-03T02:44:33.516Z,101074.13
2022-12-03T02:54:37.343Z,101066.19
2022-12-03T03:04:41.256Z,101080.94
2022-12-03T03:14:43.256Z,101057.19
2022-12-03T03:24:45.118Z,101062.41
2022-12-03T03:34:47.010Z,101075.44
2022-12-03T03:44:56.899Z,101067.09
2022-12-03T03:55:00.790Z,101066.16
2022-12-03T04:05:07.078Z,101073.69
2022-12-03T04:15:10.527Z,101068.25
2022-12-03T04:25:31.078Z,101081.47
2022-12-03T04:35:44.026Z,101079.06
2022-12-03T04:45:46.854Z,101064.78
2022-12-03T04:55:48.540Z,101083.03
2022-12-03T05:05:50.129Z,101099.59
2022-12-03T05:15:52.015Z,101086.88
2022-12-03T05:25:58.772Z,101095.84
2022-12-03T05:36:00.474Z,101100.19
2022-12-03T05:46:05.269Z,101095.50
2022-12-03T05:56:16.796Z,101105.03
2022-12-03T06:06:19.318Z,101117.63
2022-12-03T06:16:21.089Z,101111.16
2022-12-03T06:26:23.223Z,101103.03
2022-12-03T06:36:28.004Z,101110.94
2022-12-03T06:46:29.745Z,101111.19
2022-12-03T06:56:36.770Z,101116.72
2022-12-03T07:06:41.175Z,101117.41
2022-12-03T07:16:46.199Z,101118.63
2022-12-03T07:26:55.000Z,101118.47
2022-12-03T07:36:58.099Z,101117.56
2022-12-03T07:46:59.950Z,101121.38
2022-12-03T07:57:02.165Z,101109.41
2022-12-03T08:07:04.133Z,101117.78
2022-12-03T08:17:12.385Z,101137.06
2022-12-03T08:27:20.419Z,101123.50
2022-12-03T08:37:22.244Z,101142.03
2022-12-03T08:47:25.877Z,101077.97
2022-12-03T08:57:32.457Z,101141.75
2022-12-03T09:07:34.247Z,101148.06
2022-12-03T09:17:37.551Z,101136.00
2022-12-03T09:27:39.224Z,101132.19
2022-12-03T09:37:45.923Z,101101.31
2022-12-03T09:47:49.652Z,101114.91
2022-12-03T09:57:57.824Z,101107.25
2022-12-03T10:08:10.893Z,101089.16
2022-12-03T10:18:24.688Z,101082.41
2022-12-03T10:28:34.745Z,101064.41
2022-12-03T10:38:36.393Z,101051.19
2022-12-03T10:48:38.209Z,101038.69
2022-12-03T10:58:42.063Z,101046.44
2022-12-03T11:08:49.189Z,101036.63
2022-12-03T11:19:01.261Z,101024.69
2022-12-03T11:29:03.563Z,100993.41
2022-12-03T11:39:05.237Z,100992.06
2022-12-03T11:49:25.291Z,100994.09
2022-12-03T11:59:27.787Z,100993.84
2022-12-03T12:09:49.168Z,100988.06
2022-12-03T12:19:54.536Z,100985.16
2022-12-03T12:30:06.728Z,100969.25
2022-12-03T12:40:15.631Z,100967.09
2022-12-03T12:50:18.806Z,100977.78
2022-12-03T13:00:23.456Z,100958.00
2022-12-03T13:10:32.890Z,100959.38
2022-12-03T13:20:34.646Z,100954.41
2022-12-03T13:30:37.311Z,100970.50
2022-12-03T13:41:06.336Z,100979.75
2022-12-03T13:51:30.397Z,100970.19
2022-12-03T14:01:33.105Z,100959.22
2022-12-03T14:11:53.460Z,100970.88
2022-12-03T14:21:55.335Z,100972.59
2022-12-03T14:31:57.829Z,100994.34
2022-12-03T14:42:15.278Z,100981.97
2022-12-03T14:52:18.940Z,100992.44
2022-12-03T15:02:38.489Z,100981.78
2022-12-03T15:12:40.294Z,100995.97
2022-12-03T15:22:41.861Z,100995.69
2022-12-03T15:32:54.869Z,101003.69
2022-12-03T15:42:57.100Z,100996.91
2022-12-03T15:53:04.840Z,101006.34
2022-12-03T16:03:17.212Z,100986.88
2022-12-03T16:13:21.714Z,100998.44
2022-12-03T16:23:23.538Z,101006.63
2022-12-03T16:33:27.975Z,101012.09
2022-12-03T16:43:34.225Z,101020.03
2022-12-03T16:53:36.252Z,100996.03
2022-12-03T17:03:39.140Z,101016.38
2022-12-03T17:13:41.081Z,101003.72
2022-12-03T17:23:45.152Z,101009.78
2022-12-03T17:33:46.857Z,101006.47
2022-12-03T17:43:50.851Z,101004.97
2022-12-03T17:53:54.527Z,101020.41
2022-12-03T18:03:57.888Z,101000.31
2022-12-03T18:14:01.841Z,101008.53
2022-12-03T18:24:04.200Z,101004.56
2022-12-03T18:34:06.238Z,101006.31
2022-12-03T18:44:11.513Z,101012.06
2022-12-03T18:54:14.612Z,101028.53
2022-12-03T19:04:16.322Z,101018.75
2022-12-03T19:14:18.471Z,101011.09
2022-12-03T19:24:25.156Z,101013.41
2022-12-03T19:34:27.658Z,101024.41
2022-12-03T19:44:30.966Z,101018.66
2022-12-03T19:54:32.664Z,101033.97
2022-12-03T20:04:34.367Z,101032.06
2022-12-03T20:14:36.385Z,101019.75
2022-12-03T20:24:38.483Z,101017.47
2022-12-03T20:34:44.800Z,101021.19
2022-12-03T20:45:04.297Z,101015.06
2022-12-03T20:55:07.843Z,101016.75
2022-12-03T21:05:10.944Z,101027.88
2022-12-03T21:15:12.851Z,101019.34
2022-12-03T21:25:15.884Z,101012.34
2022-12-03T21:35:19.066Z,101030.84
2022-12-03T21:45:21.094Z,101009.44
2022-12-03T21:55:22.976Z,101002.19
2022-12-03T22:05:24.718Z,101004.16
2022-12-03T22:15:26.438Z,100999.06
2022-12-03T22:25:28.406Z,101006.34
2022-12-03T22:35:30.322Z,100993.00
2022-12-03T22:45:32.185Z,100983.78
2022-12-03T22:55:40.764Z,100989.00
2022-12-03T23:05:42.503Z,100976.94
2022-12-03T23:15:52.491Z,100979.78
2022-12-03T23:26:01.279Z,100970.25
2022-12-03T23:36:08.324Z,100959.44
2022-12-03T23:46:17.186Z,100965.88
2022-12-03T23:56:28.495Z,100953.41
